createdAt,value
2022-10-24T00:00:16.184Z,2.10
2022-10-24T00:02:43.156Z,1.97
2022-10-24T00:05:13.316Z,2.07
2022-10-24T00:07:40.858Z,1.97
2022-10-24T00:10:09.154Z,2.23
2022-10-24T00:12:35.846Z,2.10
2022-10-24T00:15:02.602Z,2.00
2022-10-24T00:17:29.259Z,2.33
2022-10-24T00:19:58.857Z,2.50
2022-10-24T00:22:26.064Z,2.37
2022-10-24T00:24:52.821Z,2.30
2022-10-24T00:27:20.030Z,2.20
2022-10-24T00:29:46.807Z,1.83
2022-10-24T00:32:14.472Z,1.80
2022-10-24T00:34:42.064Z,2.00
2022-10-24T00:37:09.082Z,2.40
2022-10-24T00:39:35.797Z,2.00
2022-10-24T00:42:03.189Z,2.30
2022-10-24T00:44:37.339Z,1.67
2022-10-24T00:47:12.788Z,1.90
2022-10-24T00:50:09.933Z,2.10
2022-10-24T00:52:40.923Z,2.07
2022-10-24T00:55:10.499Z,2.00
2022-10-24T00:57:45.491Z,2.33
2022-10-24T01:00:19.403Z,2.10
2022-10-24T01:02:46.574Z,1.90
2022-10-24T01:05:14.781Z,2.10
2022-10-24T01:07:59.603Z,2.10
2022-10-24T01:10:55.706Z,2.23
2022-10-24T01:13:36.388Z,2.13
2022-10-24T01:16:26.996Z,1.90
2022-10-24T01:19:14.959Z,1.70
2022-10-24T01:21:45.807Z,2.00
2022-10-24T01:24:30.693Z,1.70
2022-10-24T01:27:26.824Z,1.70
2022-10-24T01:30:02.079Z,1.90
2022-10-24T01:32:36.057Z,1.70
2022-10-24T01:35:06.773Z,1.80
2022-10-24T01:37:44.320Z,2.10
2022-10-24T01:40:17.785Z,1.90
2022-10-24T01:42:47.370Z,2.03
2022-10-24T01:45:18.941Z,1.70
2022-10-24T01:47:52.333Z,1.57
2022-10-24T01:50:22.099Z,1.93
2022-10-24T01:52:50.183Z,1.90
2022-10-24T01:55:16.916Z,1.80
2022-10-24T01:57:43.600Z,2.10
2022-10-24T02:00:18.105Z,2.33
2022-10-24T02:02:50.179Z,2.23
2022-10-24T02:05:25.870Z,1.67
2022-10-24T02:07:56.488Z,1.50
2022-10-24T02:10:29.296Z,2.00
2022-10-24T02:13:03.450Z,1.90
2022-10-24T02:15:34.713Z,1.67
2022-10-24T02:18:02.017Z,1.50
2022-10-24T02:20:35.581Z,1.70
2022-10-24T02:23:18.298Z,1.70
2022-10-24T02:25:49.367Z,1.50
2022-10-24T02:28:22.697Z,1.47
2022-10-24T02:30:59.172Z,1.57
2022-10-24T02:33:27.936Z,1.50
2022-10-24T02:35:56.513Z,1.43
2022-10-24T02:38:28.629Z,1.33
2022-10-24T02:40:58.864Z,1.67
2022-10-24T02:43:27.480Z,1.40
2022-10-24T02:45:56.286Z,1.50
2022-10-24T02:48:29.786Z,1.50
2022-10-24T02:50:56.543Z,2.17
2022-10-24T02:53:25.448Z,1.60
2022-10-24T02:55:52.279Z,1.37
2022-10-24T02:58:18.948Z,1.50
2022-10-24T03:00:45.655Z,1.43
2022-10-24T03:03:12.492Z,1.50
2022-10-24T03:05:39.245Z,1.50
2022-10-24T03:08:06.122Z,1.73
2022-10-24T03:10:32.835Z,1.60
2022-10-24T03:13:00.684Z,1.60
2022-10-24T03:15:27.348Z,1.30
2022-10-24T03:17:54.015Z,1.73
2022-10-24T03:20:21.023Z,1.33
2022-10-24T03:22:47.698Z,1.53
2022-10-24T03:25:14.469Z,1.50
2022-10-24T03:27:41.216Z,1.50
2022-10-24T03:30:08.553Z,1.70
2022-10-24T03:32:36.035Z,1.63
2022-10-24T03:35:02.982Z,1.60
2022-10-24T03:37:29.641Z,1.73
2022-10-24T03:39:56.360Z,1.50
2022-10-24T03:42:23.073Z,1.60
2022-10-24T03:44:49.726Z,2.10
2022-10-24T03:47:16.745Z,1.90
2022-10-24T03:49:43.413Z,1.90
2022-10-24T03:52:10.328Z,1.30
2022-10-24T03:54:38.709Z,1.90
2022-10-24T03:57:05.461Z,2.13
2022-10-24T03:59:32.210Z,1.60
2022-10-24T04:02:01.203Z,1.53
2022-10-24T04:04:27.965Z,1.30
2022-10-24T04:06:54.776Z,2.10
2022-10-24T04:09:22.213Z,2.20
2022-10-24T04:11:48.942Z,2.00
2022-10-24T04:14:15.641Z,1.80
2022-10-24T04:16:42.316Z,1.47
2022-10-24T04:19:10.553Z,1.40
2022-10-24T04:21:37.610Z,1.70
2022-10-24T04:24:04.547Z,1.57
2022-10-24T04:26:31.394Z,1.67
2022-10-24T04:28:58.078Z,1.57
2022-10-24T04:31:24.756Z,2.07
2022-10-24T04:33:51.426Z,2.00
2022-10-24T04:36:18.290Z,1.90
2022-10-24T04:38:44.955Z,1.67
2022-10-24T04:41:12.368Z,2.20
2022-10-24T04:43:39.731Z,1.50
2022-10-24T04:46:06.856Z,1.50
2022-10-24T04:48:33.683Z,2.20
2022-10-24T04:51:00.561Z,1.73
2022-10-24T04:53:27.305Z,1.67
2022-10-24T04:55:53.965Z,1.63
2022-10-24T04:58:21.048Z,1.83
2022-10-24T05:00:49.849Z,1.57
2022-10-24T05:03:20.609Z,2.10
2022-10-24T05:05:47.587Z,2.20
2022-10-24T05:08:15.102Z,1.70
2022-10-24T05:10:42.176Z,1.60
2022-10-24T05:13:09.340Z,1.70
2022-10-24T05:15:36.173Z,1.90
2022-10-24T05:18:03.615Z,1.73
2022-10-24T05:20:30.753Z,1.70
2022-10-24T05:22:57.554Z,1.87
2022-10-24T05:25:24.367Z,1.40
2022-10-24T05:27:51.058Z,1.57
2022-10-24T05:30:17.999Z,1.67
2022-10-24T05:32:44.885Z,1.60
2022-10-24T05:35:12.425Z,1.60
2022-10-24T05:37:39.616Z,1.63
2022-10-24T05:40:11.093Z,1.97
2022-10-24T05:42:38.740Z,1.87
2022-10-24T05:45:07.524Z,2.10
2022-10-24T05:47:34.510Z,2.10
2022-10-24T05:50:01.286Z,1.73
2022-10-24T05:52:28.432Z,1.90
2022-10-24T05:55:06.382Z,2.77
2022-10-24T05:57:34.850Z,2.73
2022-10-24T06:00:01.693Z,3.37
2022-10-24T06:02:28.539Z,4.37
2022-10-24T06:04:57.075Z,4.33
2022-10-24T06:07:23.862Z,5.63
2022-10-24T06:09:51.421Z,5.53
2022-10-24T06:12:18.251Z,4.97
2022-10-24T06:14:44.979Z,6.13
2022-10-24T06:17:13.829Z,6.00
2022-10-24T06:19:41.116Z,6.00
2022-10-24T06:22:08.741Z,6.10
2022-10-24T06:24:36.841Z,6.33
2022-10-24T06:27:05.176Z,5.90
2022-10-24T06:29:32.528Z,6.80
2022-10-24T06:31:59.496Z,7.50
2022-10-24T06:34:26.316Z,7.47
2022-10-24T06:36:53.506Z,8.23
2022-10-24T06:39:20.278Z,8.03
2022-10-24T06:41:47.038Z,7.40
2022-10-24T06:44:13.720Z,8.07
2022-10-24T06:46:40.477Z,7.83
2022-10-24T06:49:07.812Z,8.10
2022-10-24T06:51:34.523Z,7.90
2022-10-24T06:54:01.487Z,7.90
2022-10-24T06:56:28.289Z,7.50
2022-10-24T06:58:55.015Z,8.03
2022-10-24T07:01:23.748Z,8.20
2022-10-24T07:03:51.067Z,8.43
2022-10-24T07:06:19.476Z,9.00
2022-10-24T07:08:46.611Z,9.60
2022-10-24T07:11:13.905Z,9.23
2022-10-24T07:13:40.878Z,10.20
2022-10-24T07:16:07.887Z,8.80
2022-10-24T07:18:35.195Z,8.90
2022-10-24T07:21:08.383Z,8.90
2022-10-24T07:23:35.821Z,9.50
2022-10-24T07:26:08.253Z,9.97
2022-10-24T07:28:36.041Z,8.97
2022-10-24T07:31:03.022Z,9.53
2022-10-24T07:33:30.277Z,9.33
2022-10-24T07:35:57.042Z,9.80
2022-10-24T07:38:23.768Z,9.43
2022-10-24T07:40:50.776Z,9.10
2022-10-24T07:43:18.045Z,8.80
2022-10-24T07:45:49.096Z,8.60
2022-10-24T07:48:19.418Z,8.40
2022-10-24T07:50:47.571Z,8.13
2022-10-24T07:53:14.714Z,9.00
2022-10-24T07:55:42.718Z,8.40
2022-10-24T07:58:10.882Z,8.30
2022-10-24T08:00:42.534Z,7.63
2022-10-24T08:03:11.733Z,8.37
2022-10-24T08:05:40.778Z,8.37
2022-10-24T08:10:54.879Z,9.97
2022-10-24T08:13:21.605Z,21.43
2022-10-24T08:15:48.407Z,17.90
2022-10-24T08:18:15.190Z,15.00
2022-10-24T08:20:41.960Z,12.37
2022-10-24T08:23:08.866Z,11.33
2022-10-24T08:25:35.627Z,11.73
2022-10-24T08:28:05.197Z,10.20
2022-10-24T08:30:34.846Z,10.73
2022-10-24T08:33:01.559Z,10.40
2022-10-24T08:35:28.427Z,9.97
2022-10-24T08:37:55.106Z,9.73
2022-10-24T08:40:27.311Z,9.10
2022-10-24T08:42:54.286Z,8.33
2022-10-24T08:45:35.597Z,8.73
2022-10-24T08:48:13.149Z,8.73
2022-10-24T08:50:43.917Z,7.77
2022-10-24T08:53:21.485Z,7.67
2022-10-24T08:55:53.443Z,8.50
2022-10-24T08:58:40.549Z,8.30
2022-10-24T09:01:14.464Z,8.13
2022-10-24T09:04:00.543Z,6.93
2022-10-24T09:06:30.473Z,6.40
2022-10-24T09:09:11.577Z,5.67
2022-10-24T09:11:48.188Z,5.90
2022-10-24T09:14:23.475Z,5.80
2022-10-24T09:16:57.812Z,5.20
2022-10-24T09:19:27.502Z,5.20
2022-10-24T09:21:56.301Z,5.40
2022-10-24T09:24:35.832Z,5.30
2022-10-24T09:27:05.882Z,5.53
2022-10-24T09:29:34.007Z,5.10
2022-10-24T09:32:01.943Z,5.50
2022-10-24T09:34:28.789Z,4.80
2022-10-24T09:36:55.740Z,4.87
2022-10-24T09:39:26.813Z,5.23
2022-10-24T09:41:53.824Z,4.53
2022-10-24T09:44:47.526Z,5.13
2022-10-24T09:47:29.265Z,5.47
2022-10-24T09:49:55.956Z,5.57
2022-10-24T09:52:26.995Z,5.47
2022-10-24T09:55:19.153Z,5.57
2022-10-24T09:57:46.064Z,5.87
2022-10-24T10:00:23.812Z,5.70
2022-10-24T10:03:23.651Z,6.10
2022-10-24T10:05:57.187Z,5.17
2022-10-24T10:08:33.468Z,5.60
2022-10-24T10:11:06.297Z,5.70
2022-10-24T10:13:42.840Z,6.37
2022-10-24T10:16:23.723Z,6.53
2022-10-24T10:18:52.027Z,6.57
2022-10-24T10:21:21.483Z,5.80
2022-10-24T10:23:55.057Z,6.10
2022-10-24T10:26:23.838Z,6.53
2022-10-24T10:28:55.538Z,6.40
2022-10-24T10:31:41.676Z,6.10
2022-10-24T10:34:14.140Z,6.57
2022-10-24T10:37:08.568Z,7.67
2022-10-24T10:39:54.249Z,6.10
2022-10-24T10:42:39.944Z,7.10
2022-10-24T10:45:15.946Z,5.80
2022-10-24T10:47:48.419Z,5.80
2022-10-24T10:50:30.453Z,6.10
2022-10-24T10:53:11.187Z,5.97
2022-10-24T10:56:06.554Z,5.60
2022-10-24T10:58:48.219Z,5.90
2022-10-24T11:01:48.445Z,6.20
2022-10-24T11:04:33.387Z,4.90
2022-10-24T11:07:06.901Z,5.43
2022-10-24T11:09:39.267Z,5.60
2022-10-24T11:12:25.841Z,11.23
2022-10-24T11:15:06.614Z,19.53
2022-10-24T11:17:45.199Z,19.80
2022-10-24T11:20:34.704Z,21.23
2022-10-24T11:23:07.212Z,22.30
2022-10-24T11:25:42.766Z,20.27
2022-10-24T11:28:20.760Z,19.90
2022-10-24T11:30:52.025Z,21.50
2022-10-24T11:33:27.082Z,20.60
2022-10-24T11:36:27.637Z,19.40
2022-10-24T11:39:02.189Z,20.00
2022-10-24T11:42:08.460Z,20.23
2022-10-24T11:44:54.025Z,18.27
2022-10-24T11:47:26.439Z,19.47
2022-10-24T11:50:13.285Z,19.27
2022-10-24T11:52:43.894Z,16.97
2022-10-24T11:55:38.829Z,18.70
2022-10-24T11:58:14.870Z,16.43
2022-10-24T12:01:20.681Z,17.50
2022-10-24T12:04:07.235Z,15.30
2022-10-24T12:06:52.776Z,16.63
2022-10-24T12:09:19.428Z,16.57
2022-10-24T12:11:55.268Z,14.63
2022-10-24T12:14:40.831Z,13.27
2022-10-24T12:17:45.067Z,13.40
2022-10-24T12:20:16.982Z,11.60
2022-10-24T12:22:45.318Z,12.60
2022-10-24T12:25:33.219Z,12.07
2022-10-24T12:28:18.129Z,10.20
2022-10-24T12:31:26.591Z,10.23
2022-10-24T12:34:15.046Z,11.20
2022-10-24T12:37:01.993Z,9.87
2022-10-24T12:39:51.000Z,9.83
2022-10-24T12:42:22.346Z,9.20
2022-10-24T12:45:28.985Z,10.20
2022-10-24T12:50:28.782Z,9.93
2022-10-24T12:53:04.705Z,9.00
2022-10-24T12:55:39.773Z,9.07
2022-10-24T12:58:45.292Z,9.10
2022-10-24T13:01:29.687Z,8.43
2022-10-24T13:04:12.492Z,8.50
2022-10-24T13:07:03.528Z,8.07
2022-10-24T13:09:48.041Z,8.30
2022-10-24T13:12:45.167Z,7.67
2022-10-24T13:15:48.307Z,7.33
2022-10-24T13:18:26.524Z,7.93
2022-10-24T13:21:10.343Z,6.93
2022-10-24T13:23:39.672Z,7.70
2022-10-24T13:26:07.023Z,7.93
2022-10-24T13:28:39.497Z,7.20
2022-10-24T13:31:06.239Z,6.20
2022-10-24T13:33:45.386Z,7.17
2022-10-24T13:36:23.100Z,6.73
2022-10-24T13:38:57.173Z,6.40
2022-10-24T13:41:56.289Z,6.07
2022-10-24T13:44:28.960Z,7.13
2022-10-24T13:47:10.679Z,6.20
2022-10-24T13:49:44.896Z,6.37
2022-10-24T13:52:23.116Z,5.90
2022-10-24T13:54:57.021Z,6.13
2022-10-24T13:57:25.537Z,6.30
2022-10-24T13:59:58.266Z,5.20
2022-10-24T14:02:32.153Z,5.70
2022-10-24T14:05:00.405Z,5.53
2022-10-24T14:07:30.572Z,5.53
2022-10-24T14:10:02.674Z,5.50
2022-10-24T14:12:32.473Z,5.77
2022-10-24T14:15:02.626Z,5.63
2022-10-24T14:17:34.554Z,5.77
2022-10-24T14:20:09.619Z,6.07
2022-10-24T14:22:39.865Z,7.20
2022-10-24T14:25:35.224Z,6.53
2022-10-24T14:28:09.939Z,6.83
2022-10-24T14:30:36.770Z,6.67
2022-10-24T14:33:15.683Z,7.10
2022-10-24T14:35:42.732Z,6.80
2022-10-24T14:38:15.583Z,6.63
2022-10-24T14:40:49.492Z,7.30
2022-10-24T14:43:27.616Z,6.53
2022-10-24T14:46:14.207Z,7.00
2022-10-24T14:48:43.638Z,7.43
2022-10-24T14:51:22.906Z,6.90
2022-10-24T14:53:50.821Z,6.83
2022-10-24T14:56:32.145Z,7.47
2022-10-24T14:59:02.321Z,6.90
2022-10-24T15:01:29.471Z,7.00
2022-10-24T15:04:04.666Z,7.80
2022-10-24T15:06:38.746Z,7.43
2022-10-24T15:09:11.245Z,7.67
2022-10-24T15:11:58.624Z,7.30
2022-10-24T15:14:40.068Z,7.43
2022-10-24T15:17:21.367Z,7.63
2022-10-24T15:19:50.483Z,7.10
2022-10-24T15:22:26.762Z,7.50
2022-10-24T15:24:56.175Z,7.90
2022-10-24T15:27:31.777Z,7.73
2022-10-24T15:29:58.612Z,8.50
2022-10-24T15:32:26.546Z,8.97
2022-10-24T15:34:56.326Z,8.60
2022-10-24T15:37:25.587Z,7.40
2022-10-24T15:39:53.930Z,8.07
2022-10-24T15:42:22.544Z,8.20
2022-10-24T15:44:49.628Z,8.10
2022-10-24T15:47:16.309Z,7.43
2022-10-24T15:49:43.065Z,7.23
2022-10-24T15:52:16.567Z,9.47
2022-10-24T15:54:43.610Z,11.90
2022-10-24T15:57:13.814Z,12.90
2022-10-24T15:59:40.604Z,12.60
2022-10-24T16:02:21.139Z,13.27
2022-10-24T16:04:48.201Z,14.40
2022-10-24T16:07:14.909Z,13.20
2022-10-24T16:09:41.582Z,15.00
2022-10-24T16:12:10.595Z,13.90
2022-10-24T16:14:37.265Z,14.20
2022-10-24T16:17:03.921Z,15.10
2022-10-24T16:19:30.839Z,14.90
2022-10-24T16:21:58.634Z,15.30
2022-10-24T16:24:26.695Z,14.73
2022-10-24T16:26:53.607Z,15.17
2022-10-24T16:29:20.265Z,15.00
2022-10-24T16:31:49.095Z,14.60
2022-10-24T16:34:15.801Z,15.23
2022-10-24T16:36:42.926Z,15.00
2022-10-24T16:39:09.951Z,13.53
2022-10-24T16:41:36.788Z,13.93
2022-10-24T16:44:03.816Z,14.77
2022-10-24T16:46:30.964Z,14.47
2022-10-24T16:48:57.742Z,14.70
2022-10-24T16:51:31.699Z,14.00
2022-10-24T16:53:59.785Z,14.57
2022-10-24T16:56:26.913Z,14.00
2022-10-24T16:58:53.607Z,14.27
2022-10-24T17:01:23.048Z,14.47
2022-10-24T17:03:49.854Z,14.73
2022-10-24T17:06:16.548Z,13.23
2022-10-24T17:08:43.589Z,14.00
2022-10-24T17:11:32.146Z,14.10
2022-10-24T17:13:58.907Z,13.97
2022-10-24T17:16:26.197Z,13.30
2022-10-24T17:19:12.406Z,13.73
2022-10-24T17:21:42.164Z,12.80
2022-10-24T17:24:13.284Z,14.43
2022-10-24T17:26:41.524Z,11.57
2022-10-24T17:29:12.086Z,12.97
2022-10-24T17:31:38.825Z,12.90
2022-10-24T17:34:05.710Z,13.17
2022-10-24T17:36:37.188Z,11.70
2022-10-24T17:39:14.366Z,12.90
2022-10-24T17:41:42.058Z,11.93
2022-10-24T17:44:16.604Z,12.70
2022-10-24T17:46:44.232Z,11.50
2022-10-24T17:49:17.752Z,13.20
2022-10-24T17:51:48.883Z,11.87
2022-10-24T17:54:16.042Z,12.03
2022-10-24T17:56:43.757Z,12.57
2022-10-24T17:59:10.509Z,12.37
2022-10-24T18:01:37.333Z,12.50
2022-10-24T18:04:04.738Z,11.90
2022-10-24T18:06:31.813Z,11.13
2022-10-24T18:08:58.826Z,11.57
2022-10-24T18:11:25.984Z,11.07
2022-10-24T18:13:52.923Z,11.83
2022-10-24T18:16:20.091Z,11.43
2022-10-24T18:18:47.581Z,11.57
2022-10-24T18:23:52.243Z,11.80
2022-10-24T18:26:21.434Z,11.17
2022-10-24T18:28:49.792Z,10.03
2022-10-24T18:31:25.802Z,9.80
2022-10-24T18:33:55.102Z,10.60
2022-10-24T18:36:24.661Z,9.63
2022-10-24T18:38:54.498Z,10.27
2022-10-24T18:41:27.007Z,10.57
2022-10-24T18:43:54.056Z,9.43
2022-10-24T18:46:21.287Z,9.77
2022-10-24T18:48:48.394Z,10.57
2022-10-24T18:51:33.940Z,9.93
2022-10-24T18:54:07.624Z,9.90
2022-10-24T18:56:34.516Z,8.77
2022-10-24T18:59:01.359Z,9.30
2022-10-24T19:01:36.810Z,9.30
2022-10-24T19:04:08.772Z,9.37
2022-10-24T19:06:36.495Z,9.20
2022-10-24T19:09:03.392Z,9.10
2022-10-24T19:11:30.154Z,9.30
2022-10-24T19:13:56.972Z,9.93
2022-10-24T19:16:28.667Z,9.00
2022-10-24T19:18:59.986Z,9.80
2022-10-24T19:21:26.910Z,9.90
2022-10-24T19:23:54.712Z,10.10
2022-10-24T19:26:21.578Z,9.20
2022-10-24T19:28:48.280Z,9.73
2022-10-24T19:31:16.413Z,9.30
2022-10-24T19:33:43.200Z,8.17
2022-10-24T19:36:13.342Z,8.93
2022-10-24T19:38:43.633Z,7.23
2022-10-24T19:41:11.647Z,5.80
2022-10-24T19:43:39.204Z,4.83
2022-10-24T19:46:18.893Z,4.10
2022-10-24T19:48:49.197Z,4.07
2022-10-24T19:51:17.692Z,3.40
2022-10-24T19:53:45.588Z,4.17
2022-10-24T19:56:23.956Z,3.63
2022-10-24T19:58:53.267Z,4.10
2022-10-24T20:01:23.071Z,4.03
2022-10-24T20:03:50.536Z,3.60
2022-10-24T20:06:18.135Z,3.40
2022-10-24T20:08:49.054Z,3.50
2022-10-24T20:11:16.580Z,2.90
2022-10-24T20:13:44.096Z,2.77
2022-10-24T20:16:11.620Z,2.40
2022-10-24T20:21:14.754Z,1.73
2022-10-24T20:23:41.750Z,2.07
2022-10-24T20:26:11.837Z,2.10
2022-10-24T20:28:41.002Z,2.20
2022-10-24T20:31:07.804Z,1.80
2022-10-24T20:33:34.627Z,2.30
2022-10-24T20:36:01.901Z,2.63
2022-10-24T20:38:29.054Z,2.40
2022-10-24T20:41:01.860Z,2.07
2022-10-24T20:43:31.533Z,1.70
2022-10-24T20:45:58.967Z,1.60
2022-10-24T20:48:25.669Z,2.37
2022-10-24T20:50:52.332Z,1.87
2022-10-24T20:53:20.601Z,1.70
2022-10-24T20:55:47.628Z,1.67
2022-10-24T20:58:14.336Z,1.70
2022-10-24T21:03:15.075Z,1.93
2022-10-24T21:05:41.812Z,1.80
2022-10-24T21:08:08.612Z,1.93
2022-10-24T21:10:35.293Z,1.63
2022-10-24T21:13:02.083Z,1.90
2022-10-24T21:15:28.731Z,2.30
2022-10-24T21:17:55.432Z,2.10
2022-10-24T21:20:22.114Z,1.87
2022-10-24T21:22:48.797Z,1.93
2022-10-24T21:25:15.537Z,2.27
2022-10-24T21:27:42.216Z,1.90
2022-10-24T21:30:14.298Z,1.90
2022-10-24T21:32:41.688Z,2.17
2022-10-24T21:35:08.485Z,1.97
2022-10-24T21:37:35.162Z,1.67
2022-10-24T21:40:01.944Z,1.90
2022-10-24T21:42:30.954Z,1.60
2022-10-24T21:44:57.693Z,1.80
2022-10-24T21:47:24.408Z,1.60
2022-10-24T21:49:51.072Z,1.47
2022-10-24T21:52:17.802Z,1.30
2022-10-24T21:54:44.489Z,1.60
2022-10-24T21:57:11.152Z,1.33
2022-10-24T21:59:38.921Z,1.63
2022-10-24T22:02:05.855Z,1.53
2022-10-24T22:04:32.687Z,1.43
2022-10-24T22:06:59.415Z,1.40
2022-10-24T22:09:26.276Z,1.30
2022-10-24T22:11:55.280Z,1.43
2022-10-24T22:14:22.044Z,1.30
2022-10-24T22:16:48.766Z,1.40
2022-10-24T22:19:15.967Z,1.30
2022-10-24T22:21:47.142Z,1.47
2022-10-24T22:24:16.710Z,1.37
2022-10-24T22:26:44.339Z,1.53
2022-10-24T22:29:14.092Z,1.10
2022-10-24T22:31:41.095Z,1.47
2022-10-24T22:34:08.252Z,1.30
2022-10-24T22:36:37.764Z,1.17
2022-10-24T22:39:11.618Z,1.40
2022-10-24T22:41:38.427Z,1.27
2022-10-24T22:44:05.476Z,1.00
2022-10-24T22:47:04.527Z,1.10
2022-10-24T22:49:44.181Z,1.17
2022-10-24T22:52:11.826Z,1.20
2022-10-24T22:54:39.327Z,1.20
2022-10-24T22:57:06.836Z,1.53
2022-10-24T22:59:33.828Z,1.33
2022-10-24T23:02:03.399Z,1.00
2022-10-24T23:04:30.144Z,1.27
2022-10-24T23:07:24.960Z,1.43
2022-10-24T23:09:54.152Z,1.30
2022-10-24T23:12:22.272Z,1.30
2022-10-24T23:14:50.412Z,1.20
2022-10-24T23:17:25.756Z,1.00
2022-10-24T23:19:53.799Z,0.80
2022-10-24T23:22:26.267Z,1.00
2022-10-24T23:24:58.060Z,0.90
2022-10-24T23:27:30.622Z,0.90
2022-10-24T23:29:57.590Z,1.10
2022-10-24T23:32:33.422Z,1.20
2022-10-24T23:35:01.107Z,1.20
2022-10-24T23:37:32.799Z,1.30
2022-10-24T23:40:01.341Z,1.60
2022-10-24T23:42:28.352Z,1.40
2022-10-24T23:44:55.323Z,1.10
2022-10-24T23:48:09.987Z,1.00
2022-10-24T23:50:45.932Z,0.97
2022-10-24T23:53:16.088Z,1.00
2022-10-24T23:55:43.076Z,1.20
2022-10-24T23:58:11.392Z,1.03
